Time;durP1;ratioP1;P1;durP2;ratioP2;P2;SDS_P1;SDS_P2;PMS_P1;PMS_P2;Temp;Humidity;BMP_temperature;BMP_pressure;BME280_temperature;BME280_humidity;BME280_pressure;Samples;Min_cycle;Max_cycle;Signal;HPM_P1;HPM_P2
2022/11/07 00:01:29;;;;;;;;;2.67;1.33;;;;;13.49;100.00;100888.84;5057975;28;64514;-75
2022/11/07 00:03:55;;;;;;;;;3.67;1.00;;;;;13.52;100.00;100893.25;5057857;28;59472;-76
2022/11/07 00:06:20;;;;;;;;;0.00;0.00;;;;;13.50;100.00;100885.31;5058107;28;64748;-74
2022/11/07 00:08:46;;;;;;;;;3.67;0.00;;;;;13.54;100.00;100880.91;5058741;28;45320;-73
2022/11/07 00:11:11;;;;;;;;;6.67;1.00;;;;;13.54;100.00;100886.22;5057766;28;64309;-74
2022/11/07 00:13:36;;;;;;;;;2.00;2.00;;;;;13.54;100.00;100887.09;5058917;28;45368;-76
2022/11/07 00:18:37;;;;;;;;;3.00;1.00;;;;;13.50;100.00;100880.00;5033171;28;45256;-73
2022/11/07 00:21:07;;;;;;;;;3.00;1.67;;;;;13.53;100.00;100887.97;5029748;28;45329;-74
2022/11/07 00:23:33;;;;;;;;;1.33;1.00;;;;;13.51;100.00;100881.78;5024453;28;45447;-74
2022/11/07 00:26:07;;;;;;;;;1.00;1.00;;;;;13.56;100.00;100881.78;5029074;28;47076;-73
2022/11/07 00:28:34;;;;;;;;;2.00;1.00;;;;;13.49;100.00;100878.25;5025124;28;45443;-73
2022/11/07 00:30:59;;;;;;;;;1.00;1.00;;;;;13.56;100.00;100887.06;5030365;28;45158;-74
2022/11/07 00:33:24;;;;;;;;;2.00;0.67;;;;;13.58;100.00;100885.28;5029642;28;48329;-73
2022/11/07 00:35:50;;;;;;;;;2.00;1.00;;;;;13.57;100.00;100883.53;5028519;28;66065;-74
2022/11/07 00:38:15;;;;;;;;;2.33;0.00;;;;;13.54;100.00;100873.81;5031125;28;63713;-73
2022/11/07 00:40:41;;;;;;;;;3.33;1.00;;;;;13.57;100.00;100879.09;5035627;28;45448;-75
2022/11/07 00:43:06;;;;;;;;;2.00;0.67;;;;;13.56;100.00;100872.03;5037086;28;59552;-74
2022/11/07 00:45:31;;;;;;;;;1.33;1.00;;;;;13.56;100.00;100866.72;5035788;28;66614;-73
2022/11/07 00:47:57;;;;;;;;;4.00;1.00;;;;;13.63;100.00;100880.88;5026750;28;63588;-75
2022/11/07 00:50:22;;;;;;;;;1.33;0.00;;;;;13.64;100.00;100874.72;5044391;28;64114;-73
2022/11/07 00:52:47;;;;;;;;;3.33;0.67;;;;;13.67;100.00;100872.03;5021801;28;51019;-73
2022/11/07 00:55:13;;;;;;;;;1.00;1.00;;;;;13.66;100.00;100856.13;5027260;28;48301;-74
2022/11/07 00:57:38;;;;;;;;;2.00;1.00;;;;;13.69;100.00;100867.63;5023146;28;63219;-74
2022/11/07 01:00:04;;;;;;;;;3.67;1.00;;;;;13.75;100.00;100870.28;5030019;28;45281;-76
2022/11/07 01:02:29;;;;;;;;;3.33;2.00;;;;;13.73;100.00;100872.03;5026740;28;45678;-75
2022/11/07 01:05:10;;;;;;;;;3.00;0.00;;;;;13.79;100.00;100860.50;5035871;28;70289;-74
2022/11/07 01:07:36;;;;;;;;;2.00;1.00;;;;;13.76;100.00;100871.16;5030435;28;45435;-74
2022/11/07 01:10:02;;;;;;;;;4.00;1.00;;;;;13.83;100.00;100883.50;5035652;28;45444;-76
2022/11/07 01:12:27;;;;;;;;;2.67;0.00;;;;;13.81;100.00;100869.38;5035054;28;45331;-75
2022/11/07 01:14:53;;;;;;;;;5.00;1.00;;;;;13.85;100.00;100885.28;5043289;28;70671;-75
2022/11/07 01:17:18;;;;;;;;;1.00;1.00;;;;;13.88;100.00;100877.31;5047309;28;70103;-74
2022/11/07 01:19:44;;;;;;;;;3.67;1.00;;;;;13.86;100.00;100883.53;5057504;28;45751;-73
2022/11/07 01:22:10;;;;;;;;;2.00;1.00;;;;;13.91;100.00;100894.13;5053426;28;45263;-74
2022/11/07 01:24:36;;;;;;;;;3.33;1.00;;;;;13.89;100.00;100889.69;5048708;28;46390;-74
2022/11/07 01:27:01;;;;;;;;;1.33;1.33;;;;;13.91;100.00;100876.44;5042911;28;45497;-74
2022/11/07 01:29:27;;;;;;;;;0.00;0.00;;;;;13.92;100.00;100878.19;5049520;28;58646;-74
2022/11/07 01:31:52;;;;;;;;;4.00;1.00;;;;;13.95;100.00;100891.44;5047480;28;45469;-74
2022/11/07 01:34:17;;;;;;;;;1.67;0.33;;;;;13.89;100.00;100867.56;5052268;28;63093;-74
2022/11/07 01:36:43;;;;;;;;;2.00;1.00;;;;;13.96;100.00;100887.06;5052468;28;45402;-75
2022/11/07 01:39:08;;;;;;;;;2.33;1.00;;;;;14.00;100.00;100897.63;5045760;28;61860;-75
2022/11/07 01:41:36;;;;;;;;;1.00;1.00;;;;;13.99;100.00;100895.88;5056349;28;60365;-74
2022/11/07 01:44:06;;;;;;;;;2.67;0.67;;;;;13.95;100.00;100888.78;5050280;28;46774;-75
2022/11/07 01:46:34;;;;;;;;;0.00;0.00;;;;;13.99;100.00;100892.34;5049944;28;45319;-74
2022/11/07 01:49:33;;;;;;;;;2.33;0.00;;;;;13.95;100.00;100874.63;5038674;28;45415;-74
2022/11/07 01:52:22;;;;;;;;;3.00;1.00;;;;;13.95;100.00;100885.25;5039968;28;45499;-75
2022/11/07 01:54:48;;;;;;;;;3.00;1.33;;;;;13.98;100.00;100888.81;5050716;28;46160;-74
2022/11/07 01:57:26;;;;;;;;;2.00;1.00;;;;;13.98;100.00;100887.91;5045420;28;45461;-73
2022/11/07 01:59:53;;;;;;;;;1.00;1.00;;;;;13.99;100.00;100895.00;5055918;28;45256;-75
2022/11/07 02:02:19;;;;;;;;;4.00;1.00;;;;;13.95;100.00;100886.13;5047776;28;62131;-74
2022/11/07 02:04:45;;;;;;;;;3.00;0.33;;;;;13.92;100.00;100886.16;5047832;28;66971;-74
2022/11/07 02:07:18;;;;;;;;;1.33;1.00;;;;;13.89;100.00;100884.38;5049445;28;61611;-75
2022/11/07 02:09:44;;;;;;;;;2.33;0.00;;;;;13.87;100.00;100907.41;5051662;28;45200;-74
2022/11/07 02:12:10;;;;;;;;;2.00;0.67;;;;;13.84;100.00;100895.88;5055515;28;45560;-74
2022/11/07 02:14:35;;;;;;;;;1.00;1.00;;;;;13.81;100.00;100907.41;5052872;28;47729;-75
2022/11/07 02:17:00;;;;;;;;;1.33;1.00;;;;;13.79;100.00;100919.78;5055580;28;45530;-75
2022/11/07 02:19:36;;;;;;;;;3.00;1.00;;;;;13.76;100.00;100906.53;5054220;28;55827;-76
2022/11/07 02:22:09;;;;;;;;;4.00;1.00;;;;;13.79;100.00;100910.94;5045287;28;45355;-73
2022/11/07 02:24:37;;;;;;;;;6.33;1.00;;;;;13.77;100.00;100916.25;5041116;28;45434;-75
2022/11/07 02:27:06;;;;;;;;;1.33;0.00;;;;;13.76;100.00;100903.00;5058488;28;45495;-73
2022/11/07 02:29:32;;;;;;;;;1.00;1.00;;;;;13.77;100.00;100910.94;5066010;28;45313;-75
2022/11/07 02:32:02;;;;;;;;;1.00;1.00;;;;;13.82;100.00;100910.94;5039078;28;45571;-73
2022/11/07 02:34:28;;;;;;;;;3.00;1.00;;;;;13.79;100.00;100897.66;5056391;28;46454;-74
2022/11/07 02:36:53;;;;;;;;;4.00;1.67;;;;;13.83;100.00;100902.09;5050304;28;45228;-74
2022/11/07 02:39:19;;;;;;;;;3.00;0.33;;;;;13.84;100.00;100912.69;5049673;28;59181;-74
2022/11/07 02:41:45;;;;;;;;;3.00;2.00;;;;;13.81;100.00;100906.53;5068178;28;45570;-74
2022/11/07 02:44:11;;;;;;;;;1.33;1.00;;;;;13.82;100.00;100903.88;5055126;28;66646;-74
2022/11/07 02:46:37;;;;;;;;;1.00;1.00;;;;;13.86;100.00;100907.41;5053800;28;64071;-74
2022/11/07 02:49:02;;;;;;;;;2.33;1.00;;;;;13.83;100.00;100895.00;5055418;28;45304;-74
2022/11/07 02:51:28;;;;;;;;;0.67;0.67;;;;;13.90;100.00;100903.84;5054517;28;57637;-74
2022/11/07 02:53:53;;;;;;;;;0.67;0.00;;;;;13.85;100.00;100892.38;5056114;28;45276;-75
2022/11/07 02:56:19;;;;;;;;;3.67;0.33;;;;;13.86;100.00;100886.19;5058861;28;56011;-74
2022/11/07 02:58:45;;;;;;;;;0.00;0.00;;;;;13.87;100.00;100888.81;5059948;28;45338;-74
2022/11/07 03:01:11;;;;;;;;;4.33;1.00;;;;;13.89;100.00;100892.34;5059650;28;45285;-75
2022/11/07 03:03:39;;;;;;;;;2.00;1.00;;;;;13.89;100.00;100878.19;5059339;28;47205;-74
2022/11/07 03:06:09;;;;;;;;;2.00;0.33;;;;;13.93;100.00;100895.88;5057867;28;45335;-74
2022/11/07 03:08:35;;;;;;;;;2.00;2.00;;;;;13.95;100.00;100886.13;5059935;28;45416;-75
2022/11/07 03:11:00;;;;;;;;;5.67;1.00;;;;;13.93;100.00;100879.09;5057732;28;45415;-74
2022/11/07 03:13:26;;;;;;;;;3.00;1.00;;;;;13.98;100.00;100887.91;5057740;28;46361;-75
2022/11/07 03:15:52;;;;;;;;;1.00;1.00;;;;;13.90;100.00;100885.25;5058477;28;57007;-76
2022/11/07 03:18:17;;;;;;;;;2.00;2.00;;;;;13.93;100.00;100909.16;5059174;28;45341;-73
2022/11/07 03:20:42;;;;;;;;;2.33;1.00;;;;;13.98;100.00;100919.78;5058967;28;45513;-73
2022/11/07 03:23:08;;;;;;;;;5.67;1.00;;;;;13.96;100.00;100905.63;5058051;28;71429;-75
2022/11/07 03:25:33;;;;;;;;;1.33;0.00;;;;;13.97;100.00;100913.59;5058453;28;45542;-75
2022/11/07 03:27:59;;;;;;;;;4.00;2.00;;;;;13.97;100.00;100902.09;5051647;28;53971;-74
2022/11/07 03:30:24;;;;;;;;;1.00;1.00;;;;;14.02;100.00;100925.09;5059214;28;45594;-74
2022/11/07 03:32:53;;;;;;;;;2.33;1.00;;;;;14.01;100.00;100925.97;5054658;28;46315;-74
2022/11/07 03:35:19;;;;;;;;;3.00;0.00;;;;;14.02;100.00;100922.44;5047445;28;45503;-74
2022/11/07 03:37:45;;;;;;;;;2.67;1.00;;;;;14.02;100.00;100905.63;5059327;28;45345;-74
2022/11/07 03:40:11;;;;;;;;;4.67;1.00;;;;;13.99;100.00;100893.22;5059313;28;45317;-75
2022/11/07 03:42:40;;;;;;;;;2.00;1.00;;;;;14.00;100.00;100891.44;5052503;28;47339;-74
2022/11/07 03:45:07;;;;;;;;;4.00;0.33;;;;;14.04;100.00;100894.09;5058862;28;45167;-74
2022/11/07 03:47:36;;;;;;;;;3.00;1.00;;;;;13.96;100.00;100871.13;5058705;28;45465;-73
2022/11/07 03:50:02;;;;;;;;;4.67;0.00;;;;;14.07;100.00;100898.53;5059104;28;45324;-73
2022/11/07 03:52:27;;;;;;;;;3.67;0.00;;;;;14.07;100.00;100896.75;5054845;28;47625;-76
2022/11/07 03:54:52;;;;;;;;;5.67;2.00;;;;;14.05;100.00;100885.22;5058915;28;45405;-74
2022/11/07 03:57:17;;;;;;;;;0.00;0.00;;;;;14.06;100.00;100889.69;5057949;28;61518;-74
2022/11/07 03:59:43;;;;;;;;;1.00;1.00;;;;;14.01;100.00;100891.47;5058421;28;58697;-75
2022/11/07 04:02:08;;;;;;;;;1.00;0.00;;;;;14.04;100.00;100893.22;5055519;28;45592;-73
2022/11/07 04:04:34;;;;;;;;;4.00;1.00;;;;;14.05;100.00;100887.88;5054826;28;45233;-73
2022/11/07 04:06:59;;;;;;;;;3.33;1.00;;;;;14.05;100.00;100892.31;5051779;28;45294;-74
2022/11/07 04:09:24;;;;;;;;;4.67;0.67;;;;;14.02;100.00;100882.59;5053561;28;62186;-74
2022/11/07 04:17:17;;;;;;;;;2.67;1.00;;;;;14.05;100.00;100882.56;5071706;28;45350;-75
2022/11/07 04:19:43;;;;;;;;;2.00;1.00;;;;;14.03;100.00;100886.13;5056896;28;45442;-74
2022/11/07 04:22:08;;;;;;;;;3.67;1.00;;;;;14.06;100.00;100886.13;5058383;28;46819;-73
2022/11/07 04:24:34;;;;;;;;;1.00;1.00;;;;;14.06;100.00;100894.06;5057080;28;65634;-74
2022/11/07 04:29:43;;;;;;;;;2.33;1.00;;;;;14.09;100.00;100896.75;5052323;28;45483;-74
2022/11/07 04:32:11;;;;;;;;;1.00;1.00;;;;;14.09;100.00;100902.94;5056477;28;69114;-74
2022/11/07 04:34:36;;;;;;;;;3.00;1.33;;;;;14.05;100.00;100893.19;5057522;28;67465;-76
2022/11/07 04:37:02;;;;;;;;;2.67;0.67;;;;;14.08;100.00;100895.84;5058246;28;45529;-74
2022/11/07 04:39:27;;;;;;;;;3.33;1.00;;;;;14.09;100.00;100904.72;5058101;28;45780;-74
2022/11/07 04:41:53;;;;;;;;;1.00;1.00;;;;;14.09;100.00;100905.59;5046762;28;46427;-74
2022/11/07 04:44:18;;;;;;;;;2.00;1.00;;;;;14.10;100.00;100903.81;5049569;28;45212;-74
2022/11/07 04:46:43;;;;;;;;;3.00;0.00;;;;;14.07;100.00;100899.41;5068597;28;59371;-74
2022/11/07 04:49:09;;;;;;;;;1.33;0.00;;;;;14.11;100.00;100909.16;5056918;28;58456;-74
2022/11/07 04:51:40;;;;;;;;;1.00;1.00;;;;;14.08;100.00;100897.63;5057123;28;63726;-74
2022/11/07 04:54:05;;;;;;;;;3.00;1.00;;;;;14.13;100.00;100907.34;5057807;28;45577;-76
2022/11/07 04:56:30;;;;;;;;;3.00;0.00;;;;;14.11;100.00;100897.59;5056933;28;62869;-75
2022/11/07 04:58:56;;;;;;;;;2.00;1.00;;;;;14.10;100.00;100899.38;5057393;28;57375;-73
2022/11/07 05:01:21;;;;;;;;;1.33;0.67;;;;;14.13;100.00;100895.84;5055800;28;63424;-74
2022/11/07 05:03:46;;;;;;;;;2.67;0.00;;;;;14.15;100.00;100897.59;5052850;28;61593;-74
2022/11/07 05:06:13;;;;;;;;;1.00;1.00;;;;;14.13;100.00;100894.06;5056738;28;45315;-74
2022/11/07 05:08:38;;;;;;;;;2.00;0.00;;;;;14.11;100.00;100895.88;5054725;28;45330;-74
2022/11/07 05:11:03;;;;;;;;;7.67;2.00;;;;;14.09;100.00;100881.69;5056077;28;46420;-75
2022/11/07 05:13:29;;;;;;;;;8.00;2.00;;;;;14.11;100.00;100890.56;5057537;28;45514;-76
2022/11/07 05:15:54;;;;;;;;;2.00;1.00;;;;;14.12;100.00;100892.31;5056706;28;63494;-76
2022/11/07 05:18:20;;;;;;;;;0.00;0.00;;;;;14.12;100.00;100886.13;5052292;28;53763;-75
2022/11/07 05:20:45;;;;;;;;;2.00;0.00;;;;;14.09;100.00;100892.31;5048227;28;45796;-74
2022/11/07 05:23:28;;;;;;;;;0.00;0.00;;;;;14.11;100.00;100897.59;5050447;28;66229;-76
2022/11/07 05:25:54;;;;;;;;;5.00;2.00;;;;;14.15;100.00;100910.88;5057318;28;45438;-74
2022/11/07 05:28:22;;;;;;;;;2.67;1.00;;;;;14.13;100.00;100911.78;5054277;28;49909;-74
2022/11/07 05:30:47;;;;;;;;;0.67;0.00;;;;;14.13;100.00;100904.69;5051850;28;47218;-74
2022/11/07 05:33:15;;;;;;;;;2.00;1.00;;;;;14.18;100.00;100923.28;5051752;28;66845;-74
2022/11/07 05:35:41;;;;;;;;;3.00;1.33;;;;;14.21;100.00;100927.69;5056912;28;45354;-73
2022/11/07 05:38:06;;;;;;;;;4.00;1.00;;;;;14.23;100.00;100926.81;5057432;28;46271;-76
2022/11/07 05:40:34;;;;;;;;;1.67;1.00;;;;;14.27;100.00;100932.97;5055652;28;67698;-73
2022/11/07 05:43:08;;;;;;;;;3.00;1.00;;;;;14.28;100.00;100933.00;5049150;28;45350;-74
2022/11/07 05:45:37;;;;;;;;;0.00;0.00;;;;;14.30;100.00;100936.53;5057392;28;45250;-74
2022/11/07 05:48:08;;;;;;;;;2.00;1.00;;;;;14.30;100.00;100932.97;5057041;28;45729;-74
2022/11/07 05:50:34;;;;;;;;;3.33;1.00;;;;;14.32;100.00;100932.06;5056969;28;46652;-73
2022/11/07 05:52:59;;;;;;;;;4.67;1.00;;;;;14.35;100.00;100941.81;5056629;28;45636;-74
2022/11/07 05:55:25;;;;;;;;;2.67;2.00;;;;;14.32;100.00;100928.53;5056982;28;45462;-75
2022/11/07 05:57:51;;;;;;;;;1.33;1.00;;;;;14.35;100.00;100934.75;5054660;28;45344;-76
2022/11/07 06:00:17;;;;;;;;;2.00;0.00;;;;;14.33;100.00;100927.69;5056138;28;47134;-74
2022/11/07 06:02:42;;;;;;;;;2.00;1.00;;;;;14.35;100.00;100931.19;5050865;28;45359;-76
2022/11/07 06:05:08;;;;;;;;;0.67;0.00;;;;;14.29;100.00;100924.13;5050403;28;45303;-75
2022/11/07 06:07:38;;;;;;;;;3.00;1.00;;;;;14.28;100.00;100918.84;5050211;28;45525;-74
2022/11/07 06:10:05;;;;;;;;;3.00;1.00;;;;;14.21;100.00;100922.38;5041792;28;46513;-75
2022/11/07 06:12:30;;;;;;;;;3.00;0.00;;;;;14.21;100.00;100922.38;5059773;28;45509;-74
2022/11/07 06:14:55;;;;;;;;;5.00;0.00;;;;;14.23;100.00;100939.22;5056218;28;45937;-74
2022/11/07 06:17:21;;;;;;;;;4.00;1.00;;;;;14.21;100.00;100936.53;5056044;28;45255;-74
2022/11/07 06:19:46;;;;;;;;;3.33;1.00;;;;;14.15;100.00;100944.53;5041856;28;64948;-75
2022/11/07 06:22:11;;;;;;;;;2.67;1.00;;;;;14.20;100.00;100947.16;5044577;28;64066;-73
2022/11/07 06:24:37;;;;;;;;;4.33;1.00;;;;;14.17;100.00;100945.41;5054132;28;60726;-75
2022/11/07 06:27:02;;;;;;;;;2.67;0.00;;;;;14.13;100.00;100947.19;5055537;28;59191;-74
2022/11/07 06:29:28;;;;;;;;;0.00;0.00;;;;;14.12;100.00;100947.19;5050817;28;46428;-74
2022/11/07 06:31:53;;;;;;;;;5.33;0.00;;;;;14.10;100.00;100944.53;5050086;28;60969;-74
2022/11/07 06:34:18;;;;;;;;;0.00;0.00;;;;;14.13;100.00;100946.31;5054579;28;62545;-75
2022/11/07 06:36:44;;;;;;;;;0.00;0.00;;;;;14.09;100.00;100953.38;5054482;28;47869;-76
2022/11/07 06:39:09;;;;;;;;;2.00;1.00;;;;;14.09;100.00;100949.84;5051291;28;47414;-75
2022/11/07 06:41:34;;;;;;;;;0.33;0.33;;;;;14.13;100.00;100951.63;5052582;28;60898;-74
2022/11/07 06:44:00;;;;;;;;;0.67;0.67;;;;;14.13;100.00;100954.28;5054731;28;62605;-75
2022/11/07 06:46:25;;;;;;;;;3.33;0.33;;;;;14.14;100.00;100958.69;5045252;28;45450;-75
2022/11/07 06:48:50;;;;;;;;;5.33;1.33;;;;;14.16;100.00;100956.91;5055133;28;64687;-74
2022/11/07 06:51:16;;;;;;;;;2.00;1.00;;;;;14.12;100.00;100956.03;5053038;28;45404;-74
2022/11/07 06:53:41;;;;;;;;;1.33;1.00;;;;;14.18;100.00;100959.59;5052088;28;62212;-74
2022/11/07 06:56:09;;;;;;;;;4.00;1.00;;;;;14.17;100.00;100953.38;5053196;28;63244;-76
2022/11/07 06:58:35;;;;;;;;;1.00;1.00;;;;;14.13;100.00;100949.84;5053667;28;45541;-73
2022/11/07 07:01:07;;;;;;;;;2.67;1.00;;;;;14.22;100.00;100962.22;5051691;28;45411;-73
2022/11/07 07:03:32;;;;;;;;;2.00;1.00;;;;;14.20;100.00;100969.28;5055066;28;45226;-75
2022/11/07 07:06:01;;;;;;;;;1.33;1.00;;;;;14.25;100.00;100956.91;5044204;28;53719;-75
2022/11/07 07:08:27;;;;;;;;;2.33;2.00;;;;;14.30;100.00;100952.47;5042903;28;46434;-75
2022/11/07 07:10:52;;;;;;;;;2.00;1.00;;;;;14.35;100.00;100966.63;5044954;28;45480;-74
2022/11/07 07:13:18;;;;;;;;;4.33;1.00;;;;;14.38;100.00;100971.94;5045549;28;63092;-75
2022/11/07 07:15:51;;;;;;;;;2.00;2.00;;;;;14.45;100.00;100970.13;5040794;28;48206;-74
2022/11/07 07:18:18;;;;;;;;;2.00;1.00;;;;;14.45;100.00;100958.63;5047489;28;46671;-75
2022/11/07 07:20:43;;;;;;;;;4.67;3.00;;;;;14.46;100.00;100955.06;5045179;28;45466;-75
2022/11/07 07:23:08;;;;;;;;;3.67;3.00;;;;;14.48;100.00;100972.81;5047050;28;59141;-78
2022/11/07 07:25:34;;;;;;;;;7.67;3.67;;;;;14.45;100.00;100969.25;5041405;28;64453;-76
2022/11/07 07:27:59;;;;;;;;;3.00;3.00;;;;;14.41;100.00;100963.94;5047064;28;62735;-79
2022/11/07 07:30:24;;;;;;;;;4.67;2.67;;;;;14.50;100.00;100965.72;5049709;28;53763;-78
2022/11/07 07:32:50;;;;;;;;;1.67;1.67;;;;;14.52;100.00;100979.88;5045939;28;52405;-79
2022/11/07 07:35:15;;;;;;;;;2.00;2.00;;;;;14.53;100.00;100981.66;5047825;28;45568;-75
2022/11/07 07:37:41;;;;;;;;;3.00;1.67;;;;;14.56;100.00;100973.69;5045646;28;45742;-75
2022/11/07 07:40:07;;;;;;;;;2.67;2.00;;;;;14.59;100.00;100976.31;5042847;28;45445;-77
2022/11/07 07:42:32;;;;;;;;;3.67;2.00;;;;;14.63;100.00;100971.88;5054530;28;45610;-76
2022/11/07 07:44:57;;;;;;;;;4.00;1.00;;;;;14.67;100.00;100971.00;5057159;28;62488;-75
2022/11/07 07:47:23;;;;;;;;;3.67;2.00;;;;;14.71;100.00;100978.06;5050503;28;53283;-78
2022/11/07 07:49:48;;;;;;;;;1.67;1.00;;;;;14.78;100.00;100971.81;5055516;28;45462;-76
2022/11/07 07:52:13;;;;;;;;;3.67;1.33;;;;;14.82;100.00;100986.88;5052513;28;45305;-75
2022/11/07 07:54:39;;;;;;;;;1.00;1.00;;;;;14.85;100.00;100978.00;5053333;28;45477;-78
2022/11/07 07:57:04;;;;;;;;;4.00;1.00;;;;;14.85;100.00;100970.91;5048433;28;45761;-78
2022/11/07 07:59:29;;;;;;;;;1.00;1.00;;;;;14.92;100.00;100983.28;5055930;28;63419;-76
2022/11/07 08:01:55;;;;;;;;;6.67;2.00;;;;;14.96;100.00;100992.13;5048833;28;57934;-78
2022/11/07 08:04:20;;;;;;;;;2.00;2.00;;;;;14.99;100.00;100997.44;5051330;28;59820;-75
2022/11/07 08:06:45;;;;;;;;;1.33;1.33;;;;;14.98;100.00;100990.34;5046648;28;69173;-75
2022/11/07 08:09:11;;;;;;;;;4.33;1.00;;;;;15.07;100.00;101008.91;5053078;28;68281;-77
2022/11/07 08:11:36;;;;;;;;;4.67;2.33;;;;;15.06;100.00;100992.97;5050865;28;66100;-76
2022/11/07 08:14:01;;;;;;;;;2.00;1.00;;;;;15.14;100.00;101005.34;5055968;28;45632;-75
2022/11/07 08:16:27;;;;;;;;;2.33;1.00;;;;;15.16;100.00;100987.59;5046196;28;63018;-76
2022/11/07 08:18:52;;;;;;;;;1.67;1.00;;;;;15.24;100.00;100992.00;5033808;28;62086;-78
2022/11/07 08:21:17;;;;;;;;;5.00;1.67;;;;;15.33;100.00;101002.56;5030982;28;58357;-75
2022/11/07 08:23:43;;;;;;;;;2.00;2.00;;;;;15.39;100.00;101008.78;5037420;28;45285;-76
2022/11/07 08:26:08;;;;;;;;;1.00;1.00;;;;;15.43;100.00;101015.81;5028160;28;47413;-76
2022/11/07 08:28:35;;;;;;;;;2.00;2.00;;;;;15.47;100.00;101006.06;5029556;28;70244;-76
2022/11/07 08:31:04;;;;;;;;;3.67;1.00;;;;;15.51;100.00;101020.22;5033002;28;45444;-76
2022/11/07 08:33:30;;;;;;;;;3.00;1.67;;;;;15.46;100.00;101017.59;5033888;28;45349;-76
2022/11/07 08:35:59;;;;;;;;;1.33;0.33;;;;;15.52;100.00;101016.66;5037370;28;45575;-75
2022/11/07 08:38:24;;;;;;;;;5.00;2.00;;;;;15.52;100.00;101011.34;5036553;28;45475;-75
2022/11/07 08:40:51;;;;;;;;;2.00;1.00;;;;;15.53;100.00;101015.78;5038123;28;45481;-75
2022/11/07 08:43:17;;;;;;;;;5.33;0.00;;;;;15.58;100.00;101020.16;5037425;28;45606;-75
2022/11/07 08:45:43;;;;;;;;;5.00;0.00;;;;;15.57;100.00;101014.88;5033917;28;46232;-78
2022/11/07 08:48:08;;;;;;;;;1.33;1.00;;;;;15.62;100.00;101021.91;5037042;28;45343;-75
2022/11/07 08:50:34;;;;;;;;;2.00;1.00;;;;;15.62;100.00;101021.03;5036299;28;45411;-75
2022/11/07 08:52:59;;;;;;;;;3.00;1.00;;;;;15.66;100.00;101020.16;5029616;28;45356;-76
2022/11/07 08:55:24;;;;;;;;;3.00;1.00;;;;;15.64;100.00;101025.47;5037199;28;46995;-75
2022/11/07 08:57:50;;;;;;;;;2.00;0.67;;;;;15.65;100.00;101015.72;5034962;28;61197;-75
2022/11/07 09:00:15;;;;;;;;;2.00;0.00;;;;;15.63;100.00;101013.06;5015331;28;64763;-76
2022/11/07 09:02:41;;;;;;;;;3.67;1.67;;;;;15.57;100.00;101018.41;5036865;28;45575;-76
2022/11/07 09:05:07;;;;;;;;;1.67;1.00;;;;;15.61;100.00;101019.28;5036924;28;47354;-76
2022/11/07 09:07:33;;;;;;;;;2.67;1.00;;;;;15.62;100.00;101029.03;5036002;28;45454;-76
2022/11/07 09:09:58;;;;;;;;;2.00;1.00;;;;;15.63;100.00;101021.06;5033111;28;45323;-78
2022/11/07 09:12:24;;;;;;;;;1.00;1.00;;;;;15.62;100.00;101040.56;5035628;28;45343;-77
2022/11/07 09:14:49;;;;;;;;;1.00;0.00;;;;;15.62;100.00;101050.31;5036217;28;46489;-78
2022/11/07 09:17:16;;;;;;;;;0.67;0.00;;;;;15.61;100.00;101054.75;5043136;28;45398;-75
2022/11/07 09:19:42;;;;;;;;;3.67;2.00;;;;;15.55;100.00;101044.13;5056206;28;45422;-76
2022/11/07 09:22:07;;;;;;;;;1.00;1.00;;;;;15.60;100.00;101057.41;5037092;28;45475;-77
2022/11/07 09:24:32;;;;;;;;;5.00;1.00;;;;;15.61;100.00;101057.44;5055864;28;47498;-76
2022/11/07 09:26:58;;;;;;;;;3.33;0.33;;;;;15.64;100.00;101054.75;5051481;28;45383;-76
2022/11/07 09:29:23;;;;;;;;;3.00;1.00;;;;;15.66;100.00;101050.34;5051047;28;45445;-75
2022/11/07 09:31:48;;;;;;;;;1.33;0.00;;;;;15.66;100.00;101050.34;5056373;28;45542;-76
2022/11/07 09:34:14;;;;;;;;;1.00;0.67;;;;;15.67;100.00;101035.25;5049624;28;65570;-78
2022/11/07 09:36:39;;;;;;;;;0.00;0.00;;;;;15.71;100.00;101043.19;5054044;28;49050;-76
2022/11/07 09:39:05;;;;;;;;;2.33;1.00;;;;;15.74;100.00;101041.41;5054919;28;63862;-75
2022/11/07 09:41:39;;;;;;;;;2.33;2.00;;;;;15.67;100.00;101033.47;5052713;28;45350;-76
2022/11/07 09:44:18;;;;;;;;;2.33;0.67;;;;;15.79;100.00;101043.13;5042086;28;47312;-76
2022/11/07 09:47:06;;;;;;;;;2.67;1.00;;;;;15.89;100.00;101054.59;5067152;28;45272;-75
2022/11/07 09:49:39;;;;;;;;;0.00;0.00;;;;;15.90;100.00;101051.03;5065089;28;45233;-77
2022/11/07 09:52:17;;;;;;;;;3.00;2.00;;;;;15.97;100.00;101050.97;5052921;28;46945;-78
2022/11/07 09:54:49;;;;;;;;;3.00;1.00;;;;;16.04;100.00;101054.50;5044324;28;46769;-76
2022/11/07 09:57:16;;;;;;;;;1.67;1.00;;;;;16.11;100.00;101052.66;5055329;28;45388;-76
2022/11/07 09:59:48;;;;;;;;;2.67;0.67;;;;;16.15;100.00;101041.09;5052030;28;45565;-77
2022/11/07 10:02:15;;;;;;;;;2.33;0.00;;;;;16.18;100.00;101055.25;5054809;28;45525;-78
2022/11/07 10:04:41;;;;;;;;;2.00;0.00;;;;;16.19;100.00;101040.13;5063844;28;45907;-79
2022/11/07 10:07:30;;;;;;;;;4.00;1.00;;;;;16.28;100.00;101045.41;5050763;28;45599;-77
2022/11/07 10:10:13;;;;;;;;;1.00;1.00;;;;;16.29;100.00;101051.59;5053919;28;45415;-75
2022/11/07 10:13:01;;;;;;;;;1.00;1.00;;;;;16.27;100.00;101048.97;5054673;28;45187;-76
2022/11/07 10:15:32;;;;;;;;;4.00;1.00;;;;;16.24;100.00;101047.22;5045944;28;45627;-78
2022/11/07 10:18:06;;;;;;;;;1.33;1.00;;;;;16.24;100.00;101048.97;5049601;28;45533;-77
2022/11/07 10:20:46;;;;;;;;;3.67;1.33;;;;;16.29;100.00;101049.81;5069964;28;45434;-76
2022/11/07 10:23:33;;;;;;;;;2.67;1.00;;;;;16.34;100.00;101045.34;5046696;28;45490;-77
2022/11/07 10:26:09;;;;;;;;;4.00;1.00;;;;;16.37;100.00;101041.78;5055694;28;46916;-77
2022/11/07 10:28:44;;;;;;;;;3.00;1.00;;;;;16.44;100.00;101039.03;5051636;28;45430;-76
2022/11/07 10:31:12;;;;;;;;;0.33;0.33;;;;;16.51;100.00;101045.16;5055297;28;45497;-78
2022/11/07 10:33:51;;;;;;;;;1.33;0.67;;;;;16.57;100.00;101028.25;5054353;28;45264;-77
2022/11/07 10:36:25;;;;;;;;;2.00;0.00;;;;;16.60;100.00;101026.41;5070139;28;46517;-77
2022/11/07 10:38:51;;;;;;;;;1.67;1.00;;;;;16.63;100.00;101030.84;5055090;28;45251;-76
2022/11/07 10:41:23;;;;;;;;;0.00;0.00;;;;;16.71;100.00;101032.56;5048304;28;45540;-76
2022/11/07 10:43:56;;;;;;;;;2.33;0.00;;;;;16.75;100.00;101022.75;5052463;28;45646;-78
2022/11/07 10:46:38;;;;;;;;;2.00;2.00;;;;;16.81;100.00;101041.34;5050447;28;45517;-76
2022/11/07 10:49:20;;;;;;;;;2.67;1.00;;;;;16.76;100.00;101025.38;5055196;28;45480;-77
2022/11/07 10:51:46;;;;;;;;;2.33;1.00;;;;;16.81;100.00;101033.34;5047530;28;45431;-77
2022/11/07 10:54:26;;;;;;;;;1.00;1.00;;;;;16.88;100.00;101028.81;5052435;28;45274;-76
2022/11/07 10:57:11;;;;;;;;;5.00;2.00;;;;;16.99;100.00;101030.47;5050344;28;46079;-78
2022/11/07 10:59:56;;;;;;;;;1.00;1.00;;;;;17.09;100.00;101030.34;5047867;28;45526;-77
2022/11/07 11:02:25;;;;;;;;;8.00;1.00;;;;;17.08;100.00;101033.91;5047167;28;45272;-76
2022/11/07 11:04:54;;;;;;;;;1.00;1.00;;;;;17.14;100.00;101045.38;5053248;28;45507;-75
2022/11/07 11:07:20;;;;;;;;;1.00;1.00;;;;;17.14;100.00;101023.16;5049795;28;46610;-75
2022/11/07 11:09:52;;;;;;;;;4.00;1.00;;;;;17.20;100.00;101018.63;5068350;28;45464;-73
2022/11/07 11:12:24;;;;;;;;;3.33;1.00;;;;;17.33;100.00;101019.34;5054981;28;45595;-74
2022/11/07 11:14:50;;;;;;;;;3.67;2.00;;;;;17.41;100.00;101020.09;5054590;28;45399;-76
2022/11/07 11:17:24;;;;;;;;;1.33;1.00;;;;;17.50;100.00;101025.31;5051231;28;70872;-74
2022/11/07 11:19:51;;;;;;;;;6.67;2.00;;;;;17.59;100.00;101018.09;5058430;28;46026;-74
2022/11/07 11:22:19;;;;;;;;;1.67;1.00;;;;;17.62;100.00;101012.69;5061918;28;45451;-76
2022/11/07 11:24:44;;;;;;;;;4.00;1.00;;;;;17.62;100.00;101008.22;5057512;28;45390;-76
2022/11/07 11:27:16;;;;;;;;;1.00;1.00;;;;;17.66;100.00;101012.63;5050558;28;45707;-77
2022/11/07 11:30:13;;;;;;;;;3.00;2.00;;;;;17.66;100.00;101009.09;5050652;28;45486;-74